Time;durP1;ratioP1;P1;durP2;ratioP2;P2;SDS_P1;SDS_P2;PMS_P1;PMS_P2;Temp;Humidity;BMP_temperature;BMP_pressure;BME280_temperature;BME280_humidity;BME280_pressure;Samples;Min_cycle;Max_cycle;Signal;HPM_P1;HPM_P2
2022/06/06 00:00:28;;;;;;;1.50;1.40;;;;;;;;;;4955687;28;20283;-84
2022/06/06 00:03:03;;;;;;;1.60;1.50;;;;;;;;;;4958423;29;20204;-84
2022/06/06 00:05:30;;;;;;;1.60;1.50;;;;;;;;;;4957208;29;20723;-83
2022/06/06 00:08:06;;;;;;;1.25;1.15;;;;;;;;;;4958336;29;20193;-84
2022/06/06 00:10:35;;;;;;;1.42;1.33;;;;;;;;;;4958773;28;20263;-83
2022/06/06 00:13:05;;;;;;;1.50;1.40;;;;;;;;;;4957668;29;20590;-84
2022/06/06 00:15:36;;;;;;;1.50;1.40;;;;;;;;;;4958443;29;20231;-83
2022/06/06 00:18:06;;;;;;;1.58;1.48;;;;;;;;;;4951837;29;20215;-84
2022/06/06 00:20:42;;;;;;;1.40;1.30;;;;;;;;;;4956131;28;20207;-83
2022/06/06 00:23:10;;;;;;;1.50;1.40;;;;;;;;;;4958359;29;20223;-84
2022/06/06 00:25:42;;;;;;;1.58;1.48;;;;;;;;;;4957986;29;20207;-83
2022/06/06 00:28:09;;;;;;;1.42;1.33;;;;;;;;;;4958477;29;20219;-84
2022/06/06 00:30:39;;;;;;;1.73;1.58;;;;;;;;;;4958001;28;20208;-84
2022/06/06 00:36:06;;;;;;;1.58;1.48;;;;;;;;;;4956895;29;20220;-83
2022/06/06 00:38:42;;;;;;;1.98;1.63;;;;;;;;;;4957790;29;20307;-84
2022/06/06 00:41:12;;;;;;;1.55;1.45;;;;;;;;;;4958064;29;20264;-84
2022/06/06 00:43:45;;;;;;;1.70;1.60;;;;;;;;;;4957907;29;20235;-84
2022/06/06 00:46:13;;;;;;;1.50;1.40;;;;;;;;;;4957412;29;20259;-84
2022/06/06 00:48:46;;;;;;;1.60;1.50;;;;;;;;;;4957907;29;20213;-84
2022/06/06 00:51:15;;;;;;;1.58;1.48;;;;;;;;;;4957313;28;20728;-84
2022/06/06 00:53:55;;;;;;;1.40;1.30;;;;;;;;;;4956305;29;20621;-84
2022/06/06 00:56:27;;;;;;;1.60;1.50;;;;;;;;;;4954599;29;20231;-83
2022/06/06 00:58:56;;;;;;;1.48;1.38;;;;;;;;;;4954940;29;20216;-84
2022/06/06 01:01:28;;;;;;;1.60;1.50;;;;;;;;;;4955604;29;20779;-84
2022/06/06 01:04:04;;;;;;;1.45;1.40;;;;;;;;;;4955215;29;20204;-84
2022/06/06 01:06:39;;;;;;;1.50;1.40;;;;;;;;;;4954836;29;20218;-84
2022/06/06 01:09:07;;;;;;;2.70;1.60;;;;;;;;;;4949648;29;20200;-84
2022/06/06 01:11:36;;;;;;;1.40;1.30;;;;;;;;;;4953394;28;20252;-84
2022/06/06 01:14:07;;;;;;;2.00;1.63;;;;;;;;;;4955413;29;20197;-84
2022/06/06 01:16:41;;;;;;;1.60;1.50;;;;;;;;;;4954809;29;20222;-84
2022/06/06 01:19:31;;;;;;;1.30;1.20;;;;;;;;;;4955273;29;20204;-84
2022/06/06 01:22:13;;;;;;;1.70;1.60;;;;;;;;;;4954743;28;20239;-84
2022/06/06 01:24:50;;;;;;;1.40;1.30;;;;;;;;;;4948725;29;20205;-84
2022/06/06 01:27:38;;;;;;;1.92;1.50;;;;;;;;;;4954072;29;20731;-84
2022/06/06 01:30:11;;;;;;;1.58;1.48;;;;;;;;;;4954748;29;20200;-84
2022/06/06 01:33:04;;;;;;;1.67;1.58;;;;;;;;;;4954056;28;20240;-83
2022/06/06 01:35:33;;;;;;;1.50;1.40;;;;;;;;;;4955409;28;20211;-83
2022/06/06 01:38:11;;;;;;;1.85;1.65;;;;;;;;;;4952835;29;20275;-84
2022/06/06 01:40:43;;;;;;;1.70;1.60;;;;;;;;;;4953745;28;20209;-84
2022/06/06 01:43:13;;;;;;;1.60;1.50;;;;;;;;;;4953999;29;20263;-84
2022/06/06 01:45:48;;;;;;;1.80;1.70;;;;;;;;;;4953509;28;20296;-83
2022/06/06 01:48:18;;;;;;;1.48;1.40;;;;;;;;;;4954438;29;20212;-84
2022/06/06 01:50:45;;;;;;;1.80;1.70;;;;;;;;;;4954317;28;20228;-84
2022/06/06 01:53:19;;;;;;;1.85;1.50;;;;;;;;;;4954578;29;20213;-84
2022/06/06 01:55:47;;;;;;;2.05;1.60;;;;;;;;;;4955408;29;20212;-84
2022/06/06 01:58:22;;;;;;;1.60;1.50;;;;;;;;;;4955809;29;20259;-84
2022/06/06 02:00:51;;;;;;;1.80;1.70;;;;;;;;;;4950256;29;20315;-83
2022/06/06 02:03:18;;;;;;;1.60;1.50;;;;;;;;;;4962851;28;20237;-84
2022/06/06 02:05:45;;;;;;;2.17;1.60;;;;;;;;;;4953461;29;20251;-83
2022/06/06 02:08:14;;;;;;;1.70;1.60;;;;;;;;;;4951536;29;20205;-84
2022/06/06 02:10:42;;;;;;;1.60;1.50;;;;;;;;;;4952499;28;20216;-84
2022/06/06 02:13:12;;;;;;;1.80;1.70;;;;;;;;;;4952948;29;20204;-84
2022/06/06 02:15:39;;;;;;;1.60;1.50;;;;;;;;;;4955953;29;20299;-84
2022/06/06 02:18:08;;;;;;;1.60;1.50;;;;;;;;;;4955759;29;20271;-83
2022/06/06 02:20:36;;;;;;;1.70;1.60;;;;;;;;;;4950652;29;20204;-83
2022/06/06 02:23:04;;;;;;;1.55;1.45;;;;;;;;;;4954638;29;20279;-84
2022/06/06 02:25:32;;;;;;;1.77;1.67;;;;;;;;;;4955109;29;20204;-83
2022/06/06 02:28:03;;;;;;;1.73;1.63;;;;;;;;;;4956788;29;20204;-84
2022/06/06 02:30:31;;;;;;;1.60;1.50;;;;;;;;;;4956469;28;20209;-84
2022/06/06 02:32:59;;;;;;;1.80;1.70;;;;;;;;;;4956098;29;20252;-84
2022/06/06 02:35:30;;;;;;;1.60;1.50;;;;;;;;;;4955874;29;20216;-84
2022/06/06 02:37:58;;;;;;;1.65;1.50;;;;;;;;;;4955929;29;20228;-84
2022/06/06 02:40:26;;;;;;;1.60;1.50;;;;;;;;;;4955883;29;20280;-84
2022/06/06 02:42:54;;;;;;;1.77;1.67;;;;;;;;;;4954238;29;20227;-84
2022/06/06 02:45:21;;;;;;;1.70;1.60;;;;;;;;;;4951004;29;20232;-84
2022/06/06 02:47:49;;;;;;;1.50;1.40;;;;;;;;;;4954393;29;20256;-84
2022/06/06 02:50:18;;;;;;;1.75;1.65;;;;;;;;;;4955440;29;20212;-83
2022/06/06 02:52:46;;;;;;;1.60;1.50;;;;;;;;;;4956430;28;20236;-84
2022/06/06 02:55:15;;;;;;;1.60;1.50;;;;;;;;;;4956532;28;20236;-84
2022/06/06 02:57:44;;;;;;;1.60;1.50;;;;;;;;;;4958902;29;20238;-84
2022/06/06 03:00:12;;;;;;;1.90;1.80;;;;;;;;;;4961758;28;20212;-84
2022/06/06 03:02:40;;;;;;;1.70;1.60;;;;;;;;;;4969160;28;20224;-84
2022/06/06 03:05:10;;;;;;;1.60;1.50;;;;;;;;;;4960858;29;20204;-84
2022/06/06 03:07:42;;;;;;;1.70;1.60;;;;;;;;;;4960259;29;20204;-84
2022/06/06 03:10:15;;;;;;;2.63;1.80;;;;;;;;;;4960387;29;20212;-84
2022/06/06 03:12:53;;;;;;;1.80;1.70;;;;;;;;;;4960835;28;20672;-84
2022/06/06 03:15:37;;;;;;;1.65;1.55;;;;;;;;;;4961361;29;20204;-83
2022/06/06 03:21:10;;;;;;;1.85;1.75;;;;;;;;;;4960428;28;20323;-84
2022/06/06 03:23:45;;;;;;;1.80;1.70;;;;;;;;;;4960357;29;20208;-84
2022/06/06 03:26:18;;;;;;;2.15;1.70;;;;;;;;;;4955448;29;20222;-84
2022/06/06 03:28:53;;;;;;;1.80;1.55;;;;;;;;;;4956508;29;20616;-84
2022/06/06 03:31:28;;;;;;;1.92;1.83;;;;;;;;;;4961940;29;20286;-83
2022/06/06 03:34:00;;;;;;;1.70;1.60;;;;;;;;;;4961424;29;20239;-84
2022/06/06 03:36:36;;;;;;;1.60;1.50;;;;;;;;;;4960552;29;20267;-84
2022/06/06 03:39:07;;;;;;;1.88;1.70;;;;;;;;;;4961058;29;20224;-84
2022/06/06 03:41:37;;;;;;;1.85;1.70;;;;;;;;;;4960531;29;20279;-84
2022/06/06 03:44:15;;;;;;;2.05;1.90;;;;;;;;;;4963844;29;20204;-84
2022/06/06 03:46:46;;;;;;;3.13;1.70;;;;;;;;;;4961274;29;20216;-83
2022/06/06 03:49:17;;;;;;;1.80;1.70;;;;;;;;;;4956046;29;20204;-84
2022/06/06 03:51:59;;;;;;;1.80;1.70;;;;;;;;;;4954695;29;20252;-83
2022/06/06 03:54:31;;;;;;;1.90;1.80;;;;;;;;;;4960446;29;20200;-84
2022/06/06 03:57:06;;;;;;;1.58;1.48;;;;;;;;;;4958935;29;20212;-84
2022/06/06 03:59:35;;;;;;;1.85;1.58;;;;;;;;;;4957793;28;20226;-84
2022/06/06 04:02:07;;;;;;;1.48;1.40;;;;;;;;;;4968050;28;20224;-84
2022/06/06 04:04:35;;;;;;;1.60;1.50;;;;;;;;;;4961954;28;20259;-84
2022/06/06 04:07:03;;;;;;;1.63;1.52;;;;;;;;;;4964770;28;20623;-84
2022/06/06 04:09:30;;;;;;;1.63;1.52;;;;;;;;;;4960320;28;20197;-84
2022/06/06 04:12:02;;;;;;;2.00;1.90;;;;;;;;;;4966012;28;20255;-83
2022/06/06 04:14:37;;;;;;;1.60;1.50;;;;;;;;;;4959521;29;20224;-84
2022/06/06 04:17:09;;;;;;;1.88;1.70;;;;;;;;;;4959036;29;20203;-83
2022/06/06 04:19:40;;;;;;;1.77;1.67;;;;;;;;;;4960880;28;20205;-83
2022/06/06 04:22:14;;;;;;;1.92;1.83;;;;;;;;;;4986721;23;20738;-88
2022/06/06 04:24:50;;;;;;;1.90;1.50;;;;;;;;;;4984226;28;20203;-88
2022/06/06 04:27:20;;;;;;;1.98;1.88;;;;;;;;;;4986395;28;20233;-88
2022/06/06 04:29:57;;;;;;;2.08;1.40;;;;;;;;;;4979305;28;20566;-88
2022/06/06 04:32:30;;;;;;;2.08;1.63;;;;;;;;;;4985016;28;20239;-88
2022/06/06 04:35:06;;;;;;;2.15;1.70;;;;;;;;;;4978928;28;20227;-88
2022/06/06 04:37:37;;;;;;;2.00;1.70;;;;;;;;;;4983636;28;20239;-89
2022/06/06 04:40:10;;;;;;;1.70;1.60;;;;;;;;;;4984524;28;20287;-89
2022/06/06 04:42:40;;;;;;;1.60;1.50;;;;;;;;;;4994322;28;20229;-89
2022/06/06 04:45:13;;;;;;;1.85;1.75;;;;;;;;;;4989628;28;20234;-88
2022/06/06 04:47:41;;;;;;;1.50;1.40;;;;;;;;;;4983933;28;20287;-88
2022/06/06 04:50:10;;;;;;;2.30;1.92;;;;;;;;;;4985280;28;20199;-89
2022/06/06 04:52:39;;;;;;;1.60;1.50;;;;;;;;;;4977758;28;20227;-88
2022/06/06 04:55:07;;;;;;;1.77;1.67;;;;;;;;;;4987792;28;20215;-88
2022/06/06 04:57:36;;;;;;;2.00;1.90;;;;;;;;;;4975527;28;20319;-88
2022/06/06 05:00:06;;;;;;;1.60;1.50;;;;;;;;;;4987672;28;20194;-88
2022/06/06 05:02:35;;;;;;;1.63;1.52;;;;;;;;;;4988220;28;20231;-88
2022/06/06 05:05:05;;;;;;;1.55;1.45;;;;;;;;;;4980658;28;20204;-88
2022/06/06 05:07:39;;;;;;;1.77;1.67;;;;;;;;;;4989133;28;20226;-88
2022/06/06 05:10:13;;;;;;;1.88;1.55;;;;;;;;;;4984491;28;20267;-88
2022/06/06 05:12:47;;;;;;;1.60;1.50;;;;;;;;;;4981408;28;20250;-88
2022/06/06 05:15:19;;;;;;;1.55;1.48;;;;;;;;;;4985603;28;20668;-88
2022/06/06 05:18:01;;;;;;;1.75;1.65;;;;;;;;;;4974904;28;20231;-89
2022/06/06 05:20:40;;;;;;;1.70;1.60;;;;;;;;;;4976554;28;20227;-88
2022/06/06 05:23:18;;;;;;;2.05;1.90;;;;;;;;;;4982040;28;20235;-88
2022/06/06 05:25:57;;;;;;;1.85;1.75;;;;;;;;;;4993203;28;20214;-88
2022/06/06 05:28:34;;;;;;;1.80;1.70;;;;;;;;;;4993882;28;20243;-88
2022/06/06 05:31:08;;;;;;;1.52;1.42;;;;;;;;;;4988995;28;20229;-88
2022/06/06 05:33:38;;;;;;;1.83;1.73;;;;;;;;;;4991945;28;20211;-88
2022/06/06 05:36:19;;;;;;;1.67;1.58;;;;;;;;;;4974430;28;20208;-88
2022/06/06 05:38:53;;;;;;;2.00;1.90;;;;;;;;;;4983681;28;20303;-88
2022/06/06 05:41:25;;;;;;;1.83;1.73;;;;;;;;;;4982545;28;20224;-88
2022/06/06 05:43:57;;;;;;;1.98;1.77;;;;;;;;;;4983512;28;20231;-88
2022/06/06 05:46:30;;;;;;;2.25;1.80;;;;;;;;;;4978775;28;20199;-88
2022/06/06 05:49:07;;;;;;;1.70;1.60;;;;;;;;;;4984020;28;20210;-88
2022/06/06 05:51:45;;;;;;;1.70;1.60;;;;;;;;;;4989319;28;20590;-88
2022/06/06 05:54:22;;;;;;;1.70;1.60;;;;;;;;;;4986327;28;20207;-88
2022/06/06 05:56:56;;;;;;;1.70;1.60;;;;;;;;;;4985091;28;20221;-88
2022/06/06 05:59:35;;;;;;;1.75;1.65;;;;;;;;;;4977483;28;20220;-88
2022/06/06 06:02:13;;;;;;;1.77;1.67;;;;;;;;;;4987358;28;20230;-88
2022/06/06 06:04:46;;;;;;;1.80;1.70;;;;;;;;;;4974324;28;20240;-88
2022/06/06 06:07:22;;;;;;;2.00;1.90;;;;;;;;;;4985746;28;20214;-88
2022/06/06 06:09:57;;;;;;;1.95;1.85;;;;;;;;;;4978929;28;20203;-88
2022/06/06 06:12:29;;;;;;;1.60;1.50;;;;;;;;;;4976587;28;20222;-88
2022/06/06 06:15:01;;;;;;;1.90;1.77;;;;;;;;;;4989467;28;20215;-88
2022/06/06 06:17:31;;;;;;;2.30;1.80;;;;;;;;;;4982349;28;20223;-88
2022/06/06 06:20:02;;;;;;;1.85;1.70;;;;;;;;;;4988883;28;20209;-89
2022/06/06 06:22:36;;;;;;;1.88;1.73;;;;;;;;;;4992784;28;20261;-88
2022/06/06 06:25:05;;;;;;;2.13;2.00;;;;;;;;;;4981729;28;20207;-88
2022/06/06 06:27:34;;;;;;;2.20;2.10;;;;;;;;;;4978517;28;20235;-88
2022/06/06 06:30:01;;;;;;;2.38;2.20;;;;;;;;;;4984786;28;20202;-88
2022/06/06 06:32:39;;;;;;;1.98;1.83;;;;;;;;;;4990725;28;20230;-88
2022/06/06 06:35:13;;;;;;;1.92;1.83;;;;;;;;;;4975855;28;20204;-89
2022/06/06 06:37:47;;;;;;;1.83;1.73;;;;;;;;;;4975401;28;20211;-88
2022/06/06 06:40:30;;;;;;;1.98;1.85;;;;;;;;;;4977944;28;20218;-89
2022/06/06 06:43:03;;;;;;;2.00;1.90;;;;;;;;;;4983440;28;20338;-89
2022/06/06 06:45:32;;;;;;;1.73;1.63;;;;;;;;;;4989127;28;20210;-88
2022/06/06 06:48:03;;;;;;;1.60;1.50;;;;;;;;;;4989423;28;20254;-88
2022/06/06 06:50:33;;;;;;;2.42;1.60;;;;;;;;;;4993407;28;20194;-89
2022/06/06 06:53:07;;;;;;;1.70;1.60;;;;;;;;;;4994437;28;20707;-89
2022/06/06 06:55:38;;;;;;;1.67;1.58;;;;;;;;;;4976754;28;20207;-88
2022/06/06 06:58:30;;;;;;;1.73;1.63;;;;;;;;;;4978798;28;20227;-89
2022/06/06 07:01:00;;;;;;;1.77;1.67;;;;;;;;;;4979279;28;20204;-89
2022/06/06 07:12:24;;;;;;;3.55;1.70;;;;;;;;;;4957172;28;20227;-89
2022/06/06 07:15:03;;;;;;;1.85;1.75;;;;;;;;;;4978852;28;20218;-87
2022/06/06 07:17:37;;;;;;;1.60;1.50;;;;;;;;;;4980367;28;20656;-87
2022/06/06 07:20:07;;;;;;;1.50;1.40;;;;;;;;;;4982905;28;20219;-87
2022/06/06 07:25:48;;;;;;;1.80;1.70;;;;;;;;;;4979350;28;20200;-87
2022/06/06 07:28:44;;;;;;;1.63;1.50;;;;;;;;;;4984441;28;20220;-88
2022/06/06 07:31:55;;;;;;;1.92;1.70;;;;;;;;;;4984513;28;20231;-86
2022/06/06 07:34:55;;;;;;;1.60;1.50;;;;;;;;;;4974110;28;20303;-87
2022/06/06 07:46:07;;;;;;;3.25;1.80;;;;;;;;;;4983210;28;20670;-86
2022/06/06 07:48:51;;;;;;;1.92;1.70;;;;;;;;;;4979482;28;20203;-88
2022/06/06 07:51:39;;;;;;;1.75;1.65;;;;;;;;;;4994250;23;20247;-86
2022/06/06 07:54:15;;;;;;;1.90;1.80;;;;;;;;;;4968888;28;20208;-86
2022/06/06 07:56:54;;;;;;;2.25;1.65;;;;;;;;;;4974052;28;20214;-87
2022/06/06 07:59:27;;;;;;;1.67;1.58;;;;;;;;;;4967508;28;20288;-87
2022/06/06 08:02:14;;;;;;;1.98;1.88;;;;;;;;;;4972080;28;20252;-86
2022/06/06 08:04:53;;;;;;;1.92;1.83;;;;;;;;;;4967675;28;20200;-85
2022/06/06 08:07:27;;;;;;;2.58;1.90;;;;;;;;;;4972228;28;20225;-86
2022/06/06 08:09:58;;;;;;;2.47;1.88;;;;;;;;;;4967739;28;20197;-85
2022/06/06 08:12:32;;;;;;;2.38;2.08;;;;;;;;;;4974784;28;20231;-86
2022/06/06 08:15:08;;;;;;;2.17;1.90;;;;;;;;;;4973333;28;20363;-86
2022/06/06 08:17:49;;;;;;;2.00;1.90;;;;;;;;;;4972324;28;20208;-86
2022/06/06 08:20:27;;;;;;;1.92;1.70;;;;;;;;;;4975088;28;20231;-85
2022/06/06 08:22:57;;;;;;;2.10;1.90;;;;;;;;;;4973334;28;20251;-85
2022/06/06 08:25:33;;;;;;;2.10;2.00;;;;;;;;;;4977039;28;20210;-85
2022/06/06 08:28:02;;;;;;;2.15;1.95;;;;;;;;;;4972851;28;20214;-86
2022/06/06 08:30:40;;;;;;;1.90;1.80;;;;;;;;;;4966028;28;20204;-85
2022/06/06 08:33:25;;;;;;;2.10;1.73;;;;;;;;;;4967231;28;20220;-85
2022/06/06 08:36:03;;;;;;;2.85;2.00;;;;;;;;;;4965904;28;20201;-85
2022/06/06 08:41:34;;;;;;;1.75;1.65;;;;;;;;;;4968154;28;20228;-85
2022/06/06 08:44:12;;;;;;;2.08;1.98;;;;;;;;;;4968823;28;20204;-86
2022/06/06 08:46:56;;;;;;;2.85;1.90;;;;;;;;;;4968020;28;20199;-86
2022/06/06 08:52:46;;;;;;;4.05;1.85;;;;;;;;;;4973325;28;20335;-86
2022/06/06 08:55:37;;;;;;;3.60;1.65;;;;;;;;;;4956238;28;20204;-90
2022/06/06 08:58:31;;;;;;;4.32;2.10;;;;;;;;;;4965162;28;20296;-87
2022/06/06 09:01:03;;;;;;;4.05;2.10;;;;;;;;;;4896452;29;20206;-85
2022/06/06 09:03:55;;;;;;;2.55;1.88;;;;;;;;;;4967996;28;20227;-85
2022/06/06 09:06:37;;;;;;;3.53;1.90;;;;;;;;;;4967136;28;20216;-85
2022/06/06 09:09:27;;;;;;;2.20;1.73;;;;;;;;;;4971540;28;20246;-86
2022/06/06 09:12:17;;;;;;;2.58;1.90;;;;;;;;;;4974476;28;20231;-85
2022/06/06 09:15:04;;;;;;;2.10;1.80;;;;;;;;;;4968216;28;20300;-85
2022/06/06 09:17:45;;;;;;;3.50;1.90;;;;;;;;;;4973602;28;20208;-85
2022/06/06 09:20:33;;;;;;;3.80;2.15;;;;;;;;;;4974455;28;20224;-86
2022/06/06 09:23:18;;;;;;;2.42;2.03;;;;;;;;;;4970348;28;20284;-85
2022/06/06 09:25:54;;;;;;;3.20;2.20;;;;;;;;;;4973644;28;20208;-85
2022/06/06 09:28:47;;;;;;;2.55;1.90;;;;;;;;;;4973458;28;20211;-86
2022/06/06 09:31:34;;;;;;;3.63;2.10;;;;;;;;;;4970068;28;20320;-85
2022/06/06 09:34:23;;;;;;;2.10;1.90;;;;;;;;;;4974281;28;20232;-85
2022/06/06 09:37:03;;;;;;;2.08;1.88;;;;;;;;;;4968304;28;20208;-87
2022/06/06 09:39:39;;;;;;;2.88;1.92;;;;;;;;;;4974039;28;20735;-85
2022/06/06 09:42:38;;;;;;;2.47;2.10;;;;;;;;;;4971010;28;20228;-86
2022/06/06 09:45:19;;;;;;;3.58;2.13;;;;;;;;;;4974062;28;20206;-85
2022/06/06 09:48:01;;;;;;;2.22;1.90;;;;;;;;;;4973163;28;20206;-86
2022/06/06 09:50:42;;;;;;;2.72;2.08;;;;;;;;;;4973930;28;20267;-86
2022/06/06 09:53:39;;;;;;;2.28;2.00;;;;;;;;;;4967763;28;20241;-86
2022/06/06 09:59:30;;;;;;;1.92;1.83;;;;;;;;;;4969411;28;20335;-85
2022/06/06 10:02:19;;;;;;;2.33;2.13;;;;;;;;;;4971043;28;20243;-86
2022/06/06 10:08:27;;;;;;;2.05;1.95;;;;;;;;;;4971296;28;20214;-86
2022/06/06 10:11:14;;;;;;;2.10;2.00;;;;;;;;;;4892758;29;20297;-86
2022/06/06 10:13:53;;;;;;;2.30;2.08;;;;;;;;;;4962440;28;20212;-85
2022/06/06 10:16:33;;;;;;;1.83;1.73;;;;;;;;;;4973423;28;20204;-85
2022/06/06 10:19:09;;;;;;;2.10;1.92;;;;;;;;;;4982441;28;20239;-85
2022/06/06 10:21:52;;;;;;;2.20;2.00;;;;;;;;;;5011736;23;20221;-87
2022/06/06 10:24:28;;;;;;;1.80;1.70;;;;;;;;;;4974783;28;20299;-85
2022/06/06 10:27:00;;;;;;;1.90;1.80;;;;;;;;;;4975014;28;20203;-85
2022/06/06 10:32:45;;;;;;;2.03;1.83;;;;;;;;;;4957419;28;20279;-86
2022/06/06 10:35:19;;;;;;;1.95;1.85;;;;;;;;;;4948323;28;20235;-86
2022/06/06 10:37:58;;;;;;;1.90;1.80;;;;;;;;;;4953578;28;20579;-85
2022/06/06 10:40:49;;;;;;;2.22;2.03;;;;;;;;;;4957064;28;20232;-87
2022/06/06 10:43:27;;;;;;;2.10;1.92;;;;;;;;;;4928960;28;20261;-86
2022/06/06 10:45:59;;;;;;;2.03;1.92;;;;;;;;;;4949238;28;20205;-87
2022/06/06 10:48:37;;;;;;;2.08;1.88;;;;;;;;;;4954853;28;20207;-86
2022/06/06 10:51:38;;;;;;;2.15;2.03;;;;;;;;;;4941185;28;20207;-86
2022/06/06 10:57:19;;;;;;;2.15;1.80;;;;;;;;;;4944393;28;20265;-86
2022/06/06 11:00:16;;;;;;;2.33;2.00;;;;;;;;;;4951348;28;20255;-86
2022/06/06 11:03:13;;;;;;;1.88;1.77;;;;;;;;;;4943012;28;20236;-86
2022/06/06 11:06:16;;;;;;;2.08;1.92;;;;;;;;;;4937774;28;20251;-85
2022/06/06 11:08:55;;;;;;;1.90;1.80;;;;;;;;;;4936937;28;20209;-86
2022/06/06 11:11:48;;;;;;;1.92;1.73;;;;;;;;;;4941589;28;20209;-86
2022/06/06 11:14:20;;;;;;;2.20;2.00;;;;;;;;;;4922697;28;20216;-86
2022/06/06 11:16:59;;;;;;;1.73;1.63;;;;;;;;;;4948166;28;20268;-86
2022/06/06 11:19:39;;;;;;;2.10;2.00;;;;;;;;;;4944479;28;20319;-85
2022/06/06 11:22:29;;;;;;;2.38;1.92;;;;;;;;;;4949034;28;20242;-86
2022/06/06 11:25:20;;;;;;;2.08;1.98;;;;;;;;;;4958062;28;20223;-87
2022/06/06 11:31:50;;;;;;;;;;;;;;;;;;;;;
2022/06/06 11:34:46;;;;;;;2.13;2.03;;;;;;;;;;4880099;29;20211;-86
2022/06/06 11:37:43;;;;;;;2.15;2.05;;;;;;;;;;4895499;29;20234;-87
2022/06/06 11:40:39;;;;;;;2.00;1.90;;;;;;;;;;4903030;29;20300;-86
2022/06/06 11:43:23;;;;;;;2.05;1.95;;;;;;;;;;4910793;28;20228;-87
2022/06/06 11:45:56;;;;;;;2.20;2.10;;;;;;;;;;4949489;28;20404;-86
2022/06/06 11:48:42;;;;;;;2.30;2.08;;;;;;;;;;4947006;28;20200;-87
2022/06/06 11:51:19;;;;;;;2.20;2.00;;;;;;;;;;4954079;28;20204;-85
2022/06/06 11:54:15;;;;;;;2.10;2.00;;;;;;;;;;4939226;28;20201;-87
2022/06/06 11:57:06;;;;;;;1.92;1.83;;;;;;;;;;4917077;28;20208;-86
2022/06/06 11:59:57;;;;;;;2.03;1.92;;;;;;;;;;4934354;28;20220;-87
2022/06/06 12:02:45;;;;;;;2.10;2.00;;;;;;;;;;4874722;29;20231;-85
2022/06/06 12:05:29;;;;;;;2.88;1.92;;;;;;;;;;4950561;28;20213;-85
2022/06/06 12:08:11;;;;;;;1.98;1.77;;;;;;;;;;4952871;28;20208;-86
2022/06/06 12:10:40;;;;;;;2.03;1.92;;;;;;;;;;4942658;28;20219;-87
2022/06/06 12:13:25;;;;;;;1.95;1.83;;;;;;;;;;4946472;28;20224;-86
2022/06/06 12:16:01;;;;;;;2.88;2.03;;;;;;;;;;4950545;28;20211;-87
2022/06/06 12:21:37;;;;;;;2.40;1.90;;;;;;;;;;4954074;28;20315;-86
2022/06/06 12:24:18;;;;;;;2.88;2.22;;;;;;;;;;4957155;28;20660;-86
2022/06/06 12:26:57;;;;;;;2.30;2.10;;;;;;;;;;4949359;28;20214;-87
2022/06/06 12:29:51;;;;;;;2.58;2.30;;;;;;;;;;4951269;28;20221;-87
2022/06/06 12:32:44;;;;;;;4.05;2.40;;;;;;;;;;4955371;28;20251;-92
2022/06/06 12:35:18;;;;;;;2.28;2.13;;;;;;;;;;4877723;29;20219;-91
2022/06/06 12:37:51;;;;;;;2.72;2.30;;;;;;;;;;4952917;28;20212;-86
2022/06/06 12:40:39;;;;;;;8.05;2.15;;;;;;;;;;4950705;29;20220;-86
2022/06/06 12:43:22;;;;;;;5.97;2.40;;;;;;;;;;4944472;29;20316;-86
2022/06/06 12:49:06;;;;;;;9.85;3.17;;;;;;;;;;4945420;29;20208;-88
2022/06/06 13:04:11;;;;;;;45.30;13.30;;;;;;;;;;4956286;28;20303;-86
2022/06/06 13:07:05;;;;;;;;;;;;;;;;;;;;;
2022/06/06 13:12:44;;;;;;;43.17;12.57;;;;;;;;;;4874939;29;20322;-86
2022/06/06 13:15:42;;;;;;;38.92;11.95;;;;;;;;;;4950024;28;20212;-87
2022/06/06 13:21:16;;;;;;;35.53;11.90;;;;;;;;;;4920677;28;20240;-86
2022/06/06 13:24:06;;;;;;;31.98;11.60;;;;;;;;;;4955416;28;20216;-87
2022/06/06 22:28:01;;;;;;;2.13;2.00;;;;;;;;;;4929509;29;20253;-90
2022/06/06 22:30:54;;;;;;;1.80;1.70;;;;;;;;;;4926905;29;20230;-89
2022/06/06 22:33:38;;;;;;;1.80;1.70;;;;;;;;;;4932830;29;20681;-89
2022/06/06 22:36:06;;;;;;;1.80;1.70;;;;;;;;;;4920582;29;20225;-90
2022/06/06 22:38:35;;;;;;;1.77;1.67;;;;;;;;;;4928294;29;20204;-89
2022/06/06 22:41:09;;;;;;;1.80;1.70;;;;;;;;;;4934701;29;20228;-89
2022/06/06 22:43:40;;;;;;;1.83;1.50;;;;;;;;;;4933109;29;20269;-88
2022/06/06 22:46:15;;;;;;;2.25;1.90;;;;;;;;;;4928535;29;20229;-89
2022/06/06 22:48:47;;;;;;;2.40;1.75;;;;;;;;;;4931677;29;20241;-89
2022/06/06 22:51:26;;;;;;;2.55;1.75;;;;;;;;;;4929814;29;20205;-89
2022/06/06 22:53:53;;;;;;;1.80;1.70;;;;;;;;;;4923382;29;20208;-89
2022/06/06 22:56:21;;;;;;;1.90;1.67;;;;;;;;;;4930204;29;20221;-89
2022/06/06 22:58:50;;;;;;;1.98;1.70;;;;;;;;;;4932933;29;20321;-89
2022/06/06 23:01:19;;;;;;;2.40;1.70;;;;;;;;;;4928750;29;20328;-89
2022/06/06 23:03:49;;;;;;;1.73;1.55;;;;;;;;;;4928416;29;20636;-89
2022/06/06 23:06:19;;;;;;;2.13;1.70;;;;;;;;;;4927492;29;20233;-89
2022/06/06 23:08:49;;;;;;;2.00;1.90;;;;;;;;;;4933137;29;20216;-90
2022/06/06 23:14:07;;;;;;;1.90;1.80;;;;;;;;;;4927912;29;20200;-89
2022/06/06 23:16:40;;;;;;;1.80;1.70;;;;;;;;;;4932597;29;20301;-90
2022/06/06 23:19:12;;;;;;;1.77;1.67;;;;;;;;;;4936457;29;20292;-89
2022/06/06 23:21:40;;;;;;;2.00;1.90;;;;;;;;;;4938258;29;20237;-89
2022/06/06 23:24:08;;;;;;;1.73;1.63;;;;;;;;;;4937811;29;20619;-87
2022/06/06 23:26:39;;;;;;;1.70;1.60;;;;;;;;;;4945566;28;20236;-88
2022/06/06 23:29:11;;;;;;;2.53;1.52;;;;;;;;;;4957762;29;20214;-89
2022/06/06 23:31:47;;;;;;;1.63;1.52;;;;;;;;;;4956055;29;20209;-90
2022/06/06 23:34:15;;;;;;;1.70;1.60;;;;;;;;;;4948399;29;20205;-87
2022/06/06 23:36:44;;;;;;;1.90;1.70;;;;;;;;;;4954529;28;20674;-87
2022/06/06 23:39:13;;;;;;;2.45;1.67;;;;;;;;;;4952688;28;20203;-87
2022/06/06 23:41:43;;;;;;;1.70;1.60;;;;;;;;;;4952864;28;20220;-86
2022/06/06 23:47:46;;;;;;;1.83;1.70;;;;;;;;;;4952355;28;20200;-87
2022/06/06 23:49:49;;;;;;;1.45;1.35;;;;;;;;;;4957086;28;20283;-87
2022/06/06 23:52:23;;;;;;;1.83;1.70;;;;;;;;;;4956357;28;20297;-88
2022/06/06 23:54:52;;;;;;;2.63;1.95;;;;;;;;;;4958265;29;20240;-87
2022/06/06 23:57:19;;;;;;;1.70;1.60;;;;;;;;;;4960699;28;20259;-86
2022/06/06 23:59:50;;;;;;;1.73;1.63;;;;;;;;;;4954441;28;20205;-87
